createdAt,value
2023-01-07T00:00:15.144Z,101272.00
2023-01-07T00:05:16.906Z,101258.59
2023-01-07T00:10:18.510Z,101265.09
2023-01-07T00:15:20.097Z,101254.97
2023-01-07T00:20:21.742Z,101251.34
2023-01-07T00:25:27.051Z,101254.09
2023-01-07T00:30:59.613Z,101241.34
2023-01-07T00:36:03.234Z,101254.63
2023-01-07T00:41:05.304Z,101245.16
2023-01-07T00:46:07.092Z,101240.84
2023-01-07T00:51:10.584Z,101232.25
2023-01-07T00:56:14.616Z,101236.88
2023-01-07T01:01:16.897Z,101236.19
2023-01-07T01:06:20.189Z,101219.53
2023-01-07T01:11:21.791Z,101210.59
2023-01-07T01:16:23.650Z,101209.00
2023-01-07T01:21:25.353Z,101199.75
2023-01-07T01:26:27.004Z,101190.97
2023-01-07T01:31:28.903Z,101188.38
2023-01-07T01:36:30.743Z,101193.88
2023-01-07T01:41:34.526Z,101193.19
2023-01-07T01:46:39.597Z,101205.78
2023-01-07T01:51:48.352Z,101196.63
2023-01-07T01:56:54.431Z,101192.50
2023-01-07T02:01:57.219Z,101197.16
2023-01-07T02:07:19.451Z,101192.88
2023-01-07T02:12:40.788Z,101188.03
2023-01-07T02:18:07.452Z,101194.22
2023-01-07T02:23:55.159Z,101205.41
2023-01-07T02:29:16.075Z,101202.63
2023-01-07T02:34:39.336Z,101202.47
2023-01-07T02:40:07.869Z,101197.66
2023-01-07T02:45:32.331Z,101207.06
2023-01-07T02:50:35.228Z,101199.88
2023-01-07T02:56:03.169Z,101187.13
2023-01-07T03:01:17.510Z,101182.84
2023-01-07T03:06:25.073Z,101181.81
2023-01-07T03:11:35.279Z,101179.94
2023-01-07T03:16:40.197Z,101172.91
2023-01-07T03:21:46.546Z,101169.97
2023-01-07T03:26:51.898Z,101164.44
2023-01-07T03:31:59.329Z,101157.88
2023-01-07T03:37:13.340Z,101147.91
2023-01-07T03:42:39.883Z,101138.09
2023-01-07T03:47:48.091Z,101128.47
2023-01-07T03:52:51.096Z,101119.19
2023-01-07T03:57:54.550Z,101108.72
2023-01-07T04:02:58.468Z,101106.50
2023-01-07T04:08:07.637Z,101109.41
2023-01-07T04:13:12.641Z,101110.63
2023-01-07T04:18:17.344Z,101110.09
2023-01-07T04:23:19.097Z,101101.69
2023-01-07T04:28:23.950Z,101093.44
2023-01-07T04:33:26.523Z,101091.34
2023-01-07T04:38:28.281Z,101079.16
2023-01-07T04:43:30.845Z,101071.59
2023-01-07T04:48:32.788Z,101072.66
2023-01-07T04:53:34.974Z,101061.47
2023-01-07T04:58:37.730Z,101051.50
2023-01-07T05:03:39.509Z,101044.28
2023-01-07T05:08:41.766Z,101051.84
2023-01-07T05:13:43.485Z,101048.91
2023-01-07T05:18:46.008Z,101023.00
2023-01-07T05:23:48.223Z,101030.72
2023-01-07T05:28:49.910Z,101030.53
2023-01-07T05:33:51.914Z,101036.72
2023-01-07T05:38:53.681Z,101026.41
2023-01-07T05:43:55.785Z,101013.88
2023-01-07T05:48:57.455Z,101008.22
2023-01-07T05:53:59.067Z,101009.25
2023-01-07T05:59:01.170Z,101008.91
2023-01-07T06:04:02.829Z,101005.47
2023-01-07T06:09:04.715Z,100997.41
2023-01-07T06:14:06.316Z,100987.25
2023-01-07T06:19:07.938Z,100978.69
2023-01-07T06:24:11.391Z,100962.00
2023-01-07T06:29:13.084Z,100960.31
2023-01-07T06:34:14.724Z,100965.81
2023-01-07T06:39:16.360Z,100966.66
2023-01-07T06:44:18.006Z,100959.78
2023-01-07T06:49:19.628Z,100960.97
2023-01-07T06:54:21.249Z,100964.25
2023-01-07T06:59:22.930Z,100950.53
2023-01-07T07:04:24.525Z,100957.03
2023-01-07T07:09:26.205Z,100945.19
2023-01-07T07:14:27.875Z,100938.13
2023-01-07T07:19:29.573Z,100927.66
2023-01-07T07:24:31.297Z,100928.72
2023-01-07T07:29:32.898Z,100927.13
2023-01-07T07:34:36.030Z,100932.31
2023-01-07T07:39:37.979Z,100923.91
2023-01-07T07:44:39.623Z,100917.53
2023-01-07T07:49:41.367Z,100912.91
2023-01-07T07:54:43.096Z,100905.69
2023-01-07T07:59:44.758Z,100905.03
2023-01-07T08:04:46.441Z,100906.22
2023-01-07T08:09:48.049Z,100900.75
2023-01-07T08:14:49.669Z,100898.53
2023-01-07T08:19:51.466Z,100892.50
2023-01-07T08:24:53.159Z,100888.06
2023-01-07T08:29:55.747Z,100881.34
2023-01-07T08:34:57.886Z,100883.41
2023-01-07T08:40:00.154Z,100873.44
2023-01-07T08:45:01.824Z,100871.91
2023-01-07T08:50:04.371Z,100863.13
2023-01-07T08:55:06.174Z,100859.22
2023-01-07T09:00:08.530Z,100851.50
2023-01-07T09:05:10.791Z,100853.03
2023-01-07T09:10:12.600Z,100850.59
2023-01-07T09:15:14.249Z,100849.59
2023-01-07T09:20:15.977Z,100843.91
2023-01-07T09:25:17.718Z,100845.13
2023-01-07T09:30:19.566Z,100832.06
2023-01-07T09:35:22.247Z,100821.75
2023-01-07T09:40:28.702Z,100813.50
2023-01-07T09:45:39.266Z,100813.50
2023-01-07T09:50:53.458Z,100807.16
2023-01-07T09:56:11.135Z,100794.28
2023-01-07T10:01:44.920Z,100787.78
2023-01-07T10:07:15.644Z,100780.53
2023-01-07T10:12:27.822Z,100770.22
2023-01-07T10:17:47.705Z,100751.66
2023-01-07T10:23:10.302Z,100738.59
2023-01-07T10:28:20.257Z,100730.69
2023-01-07T10:33:28.481Z,100716.22
2023-01-07T10:38:34.823Z,100706.97
2023-01-07T10:44:25.906Z,100687.47
2023-01-07T10:50:14.085Z,100689.06
2023-01-07T10:55:38.891Z,100665.84
2023-01-07T11:00:45.704Z,100653.28
2023-01-07T11:05:51.459Z,100639.47
2023-01-07T11:10:58.905Z,100620.22
2023-01-07T11:16:19.117Z,100610.56
2023-01-07T11:21:43.311Z,100615.03
2023-01-07T11:26:46.598Z,100614.00
2023-01-07T11:31:57.128Z,100607.16
2023-01-07T11:36:59.150Z,100592.66
2023-01-07T11:42:38.272Z,100585.56
2023-01-07T11:47:46.851Z,100579.59
2023-01-07T11:52:56.484Z,100576.66
2023-01-07T11:58:29.294Z,100555.06
2023-01-07T12:03:20.666Z,100544.72
2023-01-07T12:08:23.541Z,100536.75
2023-01-07T12:13:28.076Z,100524.06
2023-01-07T12:18:38.861Z,100521.25
2023-01-07T12:24:27.235Z,100495.63
2023-01-07T12:29:47.638Z,100492.44
2023-01-07T12:34:59.619Z,100469.19
2023-01-07T12:40:31.033Z,100458.38
2023-01-07T12:45:53.101Z,100448.44
2023-01-07T12:50:59.868Z,100432.97
2023-01-07T12:56:12.326Z,100413.72
2023-01-07T13:01:39.071Z,100400.63
2023-01-07T13:06:57.701Z,100395.16
2023-01-07T13:12:41.911Z,100393.25
2023-01-07T13:17:44.772Z,100381.22
2023-01-07T13:22:53.127Z,100382.94
2023-01-07T13:28:13.537Z,100375.03
2023-01-07T13:33:22.060Z,100369.19
2023-01-07T13:38:50.237Z,100365.94
2023-01-07T13:44:04.332Z,100340.53
2023-01-07T13:49:06.603Z,100336.66
2023-01-07T13:54:11.682Z,100331.16
2023-01-07T13:59:31.569Z,100312.19
2023-01-07T14:04:35.189Z,100312.31
2023-01-07T14:09:38.170Z,100309.06
2023-01-07T14:15:07.374Z,100308.03
2023-01-07T14:20:34.569Z,100306.16
2023-01-07T14:25:57.922Z,100295.25
2023-01-07T14:30:59.776Z,100288.13
2023-01-07T14:36:10.158Z,100285.38
2023-01-07T14:41:16.439Z,100286.03
2023-01-07T14:46:24.211Z,100284.41
2023-01-07T14:51:29.153Z,100291.63
2023-01-07T14:56:52.105Z,100281.00
2023-01-07T15:02:21.523Z,100261.75
2023-01-07T15:07:29.308Z,100274.19
2023-01-07T15:12:52.203Z,100275.34
2023-01-07T15:17:56.513Z,100258.53
2023-01-07T15:23:27.568Z,100253.63
2023-01-07T15:28:41.406Z,100239.50
2023-01-07T15:34:08.008Z,100237.69
2023-01-07T15:39:36.006Z,100226.72
2023-01-07T15:44:42.005Z,100221.69
2023-01-07T15:49:43.756Z,100216.31
2023-01-07T15:54:45.493Z,100205.50
2023-01-07T15:59:52.643Z,100206.81
2023-01-07T16:04:57.735Z,100202.38
2023-01-07T16:10:00.331Z,100193.59
2023-01-07T16:15:20.482Z,100197.34
2023-01-07T16:20:29.688Z,100190.25
2023-01-07T16:25:40.433Z,100189.50
2023-01-07T16:30:44.462Z,100187.22
2023-01-07T16:35:48.163Z,100186.94
2023-01-07T16:40:51.458Z,100185.31
2023-01-07T16:46:23.481Z,100197.16
2023-01-07T16:52:05.868Z,100185.91
2023-01-07T16:57:42.301Z,100195.66
2023-01-07T17:02:51.501Z,100187.31
2023-01-07T17:07:56.792Z,100199.34
2023-01-07T17:13:08.378Z,100201.06
2023-01-07T17:18:15.494Z,100189.00
2023-01-07T17:23:27.827Z,100171.09
2023-01-07T17:28:34.831Z,100156.69
2023-01-07T17:33:37.906Z,100152.44
2023-01-07T17:38:39.765Z,100134.28
2023-01-07T17:43:41.445Z,100139.63
2023-01-07T17:48:48.914Z,100137.75
2023-01-07T17:53:52.432Z,100129.50
2023-01-07T17:58:56.050Z,100113.81
2023-01-07T18:03:58.965Z,100104.06
2023-01-07T18:09:01.259Z,100085.63
2023-01-07T18:14:03.740Z,100097.25
2023-01-07T18:19:05.873Z,100087.78
2023-01-07T18:24:08.238Z,100089.78
2023-01-07T18:29:11.820Z,100092.25
2023-01-07T18:34:16.108Z,100095.09
2023-01-07T18:39:20.815Z,100096.16
2023-01-07T18:44:26.664Z,100089.06
2023-01-07T18:49:31.493Z,100100.50
2023-01-07T18:54:38.012Z,100095.88
2023-01-07T18:59:40.559Z,100100.13
2023-01-07T19:04:42.438Z,100097.00
2023-01-07T19:09:44.648Z,100086.41
2023-01-07T19:14:49.368Z,100090.84
2023-01-07T19:19:51.987Z,100084.50
2023-01-07T19:24:57.336Z,100088.31
2023-01-07T19:30:05.245Z,100065.78
2023-01-07T19:35:08.695Z,100057.28
2023-01-07T19:40:12.480Z,100051.31
2023-01-07T19:45:14.315Z,100035.31
2023-01-07T19:50:16.256Z,100027.34
2023-01-07T19:55:23.472Z,100033.97
2023-01-07T20:00:25.305Z,100038.97
2023-01-07T20:05:29.033Z,100032.91
2023-01-07T20:10:36.082Z,100030.28
2023-01-07T20:15:41.742Z,100030.84
2023-01-07T20:20:53.926Z,100019.41
2023-01-07T20:25:56.145Z,100007.28
2023-01-07T20:31:01.636Z,100018.75
2023-01-07T20:36:12.895Z,99998.66
2023-01-07T20:41:27.114Z,100004.81
2023-01-07T20:46:31.190Z,100013.81
2023-01-07T20:51:33.969Z,100014.38
2023-01-07T20:56:38.590Z,100001.31
2023-01-07T21:01:52.646Z,100011.97
2023-01-07T21:06:55.459Z,100004.97
2023-01-07T21:11:57.140Z,100009.81
2023-01-07T21:16:59.141Z,99996.38
2023-01-07T21:22:00.899Z,99991.44
2023-01-07T21:27:02.895Z,99981.13
2023-01-07T21:32:06.425Z,99982.00
2023-01-07T21:37:10.745Z,99987.25
2023-01-07T21:42:12.493Z,99996.16
2023-01-07T21:47:14.411Z,99980.75
2023-01-07T21:52:16.090Z,99984.63
2023-01-07T21:57:18.742Z,99973.16
2023-01-07T22:02:20.369Z,99980.34
2023-01-07T22:07:22.012Z,99974.84
2023-01-07T22:12:25.665Z,99978.53
2023-01-07T22:17:27.392Z,99966.47
2023-01-07T22:22:34.583Z,99984.91
2023-01-07T22:27:36.406Z,99986.16
2023-01-07T22:32:38.144Z,99994.75
2023-01-07T22:37:40.339Z,99982.53
2023-01-07T22:42:57.030Z,99983.78
2023-01-07T22:47:59.318Z,99989.84
2023-01-07T22:53:01.145Z,100001.88
2023-01-07T22:58:03.553Z,100011.84
2023-01-07T23:03:05.222Z,100013.06
2023-01-07T23:08:07.415Z,100011.94
2023-01-07T23:13:09.811Z,100013.56
2023-01-07T23:18:12.238Z,100018.59
2023-01-07T23:23:14.041Z,100023.81
2023-01-07T23:28:17.208Z,100019.75
2023-01-07T23:33:18.877Z,100023.53
2023-01-07T23:38:20.553Z,100026.56
2023-01-07T23:43:22.168Z,100027.16
2023-01-07T23:48:25.780Z,100042.31
2023-01-07T23:53:27.413Z,100031.63
2023-01-07T23:58:30.115Z,100037.50
